Time;durP1;ratioP1;P1;durP2;ratioP2;P2;SDS_P1;SDS_P2;PMS_P1;PMS_P2;Temp;Humidity;BMP_temperature;BMP_pressure;BME280_temperature;BME280_humidity;BME280_pressure;Samples;Min_cycle;Max_cycle;Signal;HPM_P1;HPM_P2
2021/08/12 00:00:15;;;;;;;31.80;29.73;;;;;;;;;;5015057;28;20485;-67
2021/08/12 00:02:42;;;;;;;31.80;30.00;;;;;;;;;;5016043;28;20450;-67
2021/08/12 00:05:09;;;;;;;30.33;28.67;;;;;;;;;;5015938;28;20456;-67
2021/08/12 00:07:36;;;;;;;31.07;29.33;;;;;;;;;;5021077;28;20974;-67
2021/08/12 00:10:04;;;;;;;30.60;29.00;;;;;;;;;;5015874;28;20972;-67
2021/08/12 00:12:32;;;;;;;30.93;29.13;;;;;;;;;;5025854;28;20449;-68
2021/08/12 00:14:59;;;;;;;30.60;28.80;;;;;;;;;;5016266;28;20541;-68
2021/08/12 00:17:26;;;;;;;30.23;28.53;;;;;;;;;;5015346;28;20957;-71
2021/08/12 00:19:54;;;;;;;31.37;29.00;;;;;;;;;;5035105;28;20448;-70
2021/08/12 00:22:21;;;;;;;31.90;29.90;;;;;;;;;;5026564;28;20457;-71
2021/08/12 00:24:48;;;;;;;30.13;28.30;;;;;;;;;;5034342;28;20459;-71
2021/08/12 00:27:15;;;;;;;30.90;29.00;;;;;;;;;;5032190;28;21097;-71
2021/08/12 00:29:43;;;;;;;30.83;29.03;;;;;;;;;;5020262;28;20540;-71
2021/08/12 00:32:11;;;;;;;31.40;29.33;;;;;;;;;;5034160;28;20456;-69
2021/08/12 00:34:38;;;;;;;30.97;29.03;;;;;;;;;;5019784;28;20453;-70
2021/08/12 00:37:05;;;;;;;31.07;29.27;;;;;;;;;;5017342;28;20827;-67
2021/08/12 00:39:32;;;;;;;31.43;29.63;;;;;;;;;;5027000;28;20817;-67
2021/08/12 00:41:59;;;;;;;30.90;29.13;;;;;;;;;;5020192;28;21151;-68
2021/08/12 00:44:27;;;;;;;30.90;29.17;;;;;;;;;;5030835;28;20468;-68
2021/08/12 00:46:55;;;;;;;29.57;27.97;;;;;;;;;;5035622;28;20445;-68
2021/08/12 00:49:22;;;;;;;31.13;29.43;;;;;;;;;;5030093;28;20456;-69
2021/08/12 00:51:50;;;;;;;30.77;28.90;;;;;;;;;;5021115;28;20470;-68
2021/08/12 00:54:18;;;;;;;31.03;29.33;;;;;;;;;;5017104;28;20456;-68
2021/08/12 00:56:45;;;;;;;31.23;29.43;;;;;;;;;;5030189;28;20955;-68
2021/08/12 00:59:13;;;;;;;31.70;29.90;;;;;;;;;;5037013;28;20459;-68
2021/08/12 01:01:40;;;;;;;32.50;30.70;;;;;;;;;;5030340;28;20492;-68
2021/08/12 01:04:08;;;;;;;31.30;29.50;;;;;;;;;;5026471;28;20464;-68
2021/08/12 01:06:41;;;;;;;30.77;29.07;;;;;;;;;;5018240;28;20466;-67
2021/08/12 01:09:11;;;;;;;30.03;28.33;;;;;;;;;;5018674;28;20489;-69
2021/08/12 01:11:40;;;;;;;30.77;29.07;;;;;;;;;;5026985;28;20473;-70
2021/08/12 01:14:13;;;;;;;31.57;29.87;;;;;;;;;;5026762;28;20462;-70
2021/08/12 01:16:41;;;;;;;30.80;29.10;;;;;;;;;;5036581;28;20474;-71
2021/08/12 01:19:23;;;;;;;30.50;28.90;;;;;;;;;;5033050;28;20457;-71
2021/08/12 01:21:54;;;;;;;30.03;28.43;;;;;;;;;;5032560;28;20491;-71
2021/08/12 01:24:21;;;;;;;28.90;27.30;;;;;;;;;;5021828;28;20929;-69
2021/08/12 01:26:52;;;;;;;29.40;27.80;;;;;;;;;;5024486;28;21112;-70
2021/08/12 01:29:26;;;;;;;28.73;27.20;;;;;;;;;;5031216;28;20503;-67
2021/08/12 01:31:58;;;;;;;31.60;29.60;;;;;;;;;;5019116;28;20466;-70
2021/08/12 01:34:32;;;;;;;30.60;28.70;;;;;;;;;;5020983;28;20929;-68
2021/08/12 01:37:01;;;;;;;30.10;28.30;;;;;;;;;;5013459;28;20446;-67
2021/08/12 01:39:28;;;;;;;30.23;28.60;;;;;;;;;;5013859;28;20953;-67
2021/08/12 01:41:56;;;;;;;31.70;29.90;;;;;;;;;;5014183;28;20481;-67
2021/08/12 01:44:25;;;;;;;31.00;29.40;;;;;;;;;;5021297;28;20952;-67
2021/08/12 01:46:53;;;;;;;31.43;29.70;;;;;;;;;;5015278;28;20457;-68
2021/08/12 01:49:20;;;;;;;32.90;31.00;;;;;;;;;;5013834;28;20464;-68
2021/08/12 01:51:47;;;;;;;31.80;29.87;;;;;;;;;;5024053;28;20475;-68
2021/08/12 01:54:17;;;;;;;32.20;30.50;;;;;;;;;;5023134;28;20449;-68
2021/08/12 01:56:44;;;;;;;32.30;30.30;;;;;;;;;;5016429;28;20967;-68
2021/08/12 01:59:12;;;;;;;31.40;29.70;;;;;;;;;;5021894;28;21006;-68
2021/08/12 02:01:39;;;;;;;30.77;29.00;;;;;;;;;;5017353;28;20484;-67
2021/08/12 02:04:07;;;;;;;32.07;30.27;;;;;;;;;;5014499;28;20450;-67
2021/08/12 02:06:35;;;;;;;32.73;30.83;;;;;;;;;;5017385;28;20531;-68
2021/08/12 02:09:02;;;;;;;32.50;30.60;;;;;;;;;;5033323;28;20459;-67
2021/08/12 02:11:31;;;;;;;32.40;30.47;;;;;;;;;;5028576;28;20473;-67
2021/08/12 02:13:58;;;;;;;30.40;28.80;;;;;;;;;;5020129;28;20463;-68
2021/08/12 02:16:25;;;;;;;30.13;28.47;;;;;;;;;;5032092;28;20460;-68
2021/08/12 02:18:52;;;;;;;30.83;29.23;;;;;;;;;;5033026;28;20449;-68
2021/08/12 02:21:23;;;;;;;30.77;28.97;;;;;;;;;;5052057;22;21146;-64
2021/08/12 02:23:55;;;;;;;30.00;28.40;;;;;;;;;;5012824;28;20462;-64
2021/08/12 02:26:22;;;;;;;30.03;28.43;;;;;;;;;;5014617;28;21220;-64
2021/08/12 02:28:51;;;;;;;30.10;28.50;;;;;;;;;;5010964;28;20462;-63
2021/08/12 02:31:19;;;;;;;30.90;29.20;;;;;;;;;;5023463;28;20465;-64
2021/08/12 02:33:47;;;;;;;30.43;28.83;;;;;;;;;;5007780;28;20976;-64
2021/08/12 02:36:14;;;;;;;29.43;27.73;;;;;;;;;;5009299;28;20488;-65
2021/08/12 02:38:44;;;;;;;29.00;27.50;;;;;;;;;;5012439;28;20449;-64
2021/08/12 02:41:14;;;;;;;28.20;26.50;;;;;;;;;;4998110;28;21010;-64
2021/08/12 02:43:42;;;;;;;28.97;27.40;;;;;;;;;;5009144;28;20815;-64
2021/08/12 02:46:11;;;;;;;29.60;28.00;;;;;;;;;;4992065;28;20461;-65
2021/08/12 02:48:39;;;;;;;29.37;27.80;;;;;;;;;;4991711;28;20979;-64
2021/08/12 02:51:06;;;;;;;29.80;28.20;;;;;;;;;;4991954;28;20466;-64
2021/08/12 02:53:34;;;;;;;30.40;28.80;;;;;;;;;;4995058;28;20464;-64
2021/08/12 02:56:03;;;;;;;29.47;27.83;;;;;;;;;;4992846;28;20579;-64
2021/08/12 02:58:32;;;;;;;29.40;27.90;;;;;;;;;;4991896;28;20541;-64
2021/08/12 03:01:00;;;;;;;28.70;27.20;;;;;;;;;;5004798;28;21007;-64
2021/08/12 03:03:28;;;;;;;29.17;27.57;;;;;;;;;;5001013;28;20449;-64
2021/08/12 03:05:56;;;;;;;29.40;27.80;;;;;;;;;;4992091;28;20457;-64
2021/08/12 03:08:23;;;;;;;27.03;25.63;;;;;;;;;;5002105;28;20473;-64
2021/08/12 03:10:52;;;;;;;29.10;27.50;;;;;;;;;;5010977;28;20453;-63
2021/08/12 03:13:19;;;;;;;28.90;27.30;;;;;;;;;;5002507;28;20458;-63
2021/08/12 03:15:46;;;;;;;28.83;27.23;;;;;;;;;;4991981;28;20462;-64
2021/08/12 03:18:13;;;;;;;30.90;28.90;;;;;;;;;;5008307;28;20460;-64
2021/08/12 03:20:43;;;;;;;29.33;27.63;;;;;;;;;;5010366;28;20624;-64
2021/08/12 03:23:11;;;;;;;31.43;29.27;;;;;;;;;;5001905;28;20469;-64
2021/08/12 03:25:38;;;;;;;31.50;29.60;;;;;;;;;;4993416;28;20459;-64
2021/08/12 03:28:05;;;;;;;31.17;29.37;;;;;;;;;;4999479;28;20453;-63
2021/08/12 03:30:33;;;;;;;32.83;30.63;;;;;;;;;;5009481;28;21011;-64
2021/08/12 03:33:00;;;;;;;31.77;29.57;;;;;;;;;;4998402;28;20470;-64
2021/08/12 03:35:27;;;;;;;32.10;29.90;;;;;;;;;;4991432;28;20461;-64
2021/08/12 03:37:55;;;;;;;31.00;29.13;;;;;;;;;;4992386;28;20446;-66
2021/08/12 03:40:22;;;;;;;29.60;27.57;;;;;;;;;;4991170;28;20950;-64
2021/08/12 03:42:50;;;;;;;30.70;28.97;;;;;;;;;;4991528;28;20498;-64
2021/08/12 03:45:17;;;;;;;30.60;28.50;;;;;;;;;;5005115;28;20456;-64
2021/08/12 03:47:44;;;;;;;30.57;28.77;;;;;;;;;;5001693;28;20458;-63
2021/08/12 03:50:11;;;;;;;28.60;27.00;;;;;;;;;;5013184;28;20457;-64
2021/08/12 03:52:38;;;;;;;29.23;27.53;;;;;;;;;;5013986;28;20461;-64
2021/08/12 03:55:08;;;;;;;29.13;27.53;;;;;;;;;;4995286;28;20450;-65
2021/08/12 03:57:35;;;;;;;29.90;28.20;;;;;;;;;;4994547;28;20820;-64
2021/08/12 04:00:05;;;;;;;29.00;27.37;;;;;;;;;;5006754;28;20462;-64
2021/08/12 04:02:32;;;;;;;28.87;27.37;;;;;;;;;;5001535;28;20485;-64
2021/08/12 04:04:59;;;;;;;29.90;28.10;;;;;;;;;;4999115;28;20449;-64
2021/08/12 04:07:26;;;;;;;28.97;27.27;;;;;;;;;;5004873;28;20822;-63
2021/08/12 04:09:53;;;;;;;29.83;28.10;;;;;;;;;;5014291;28;20460;-63
2021/08/12 04:12:22;;;;;;;29.07;27.47;;;;;;;;;;5004674;28;20692;-63
2021/08/12 04:14:49;;;;;;;29.13;27.27;;;;;;;;;;4995090;28;20464;-64
2021/08/12 04:17:16;;;;;;;29.37;27.63;;;;;;;;;;5003718;28;20454;-63
2021/08/12 04:19:43;;;;;;;29.53;27.83;;;;;;;;;;5013704;28;20454;-63
2021/08/12 04:22:10;;;;;;;28.97;27.17;;;;;;;;;;5011460;28;20485;-64
2021/08/12 04:24:37;;;;;;;28.40;26.67;;;;;;;;;;5013865;28;20826;-63
2021/08/12 04:27:05;;;;;;;29.30;27.60;;;;;;;;;;5007400;28;20454;-64
2021/08/12 04:29:33;;;;;;;28.93;27.23;;;;;;;;;;5011816;28;20450;-63
2021/08/12 04:32:00;;;;;;;29.07;27.47;;;;;;;;;;5008024;28;20462;-64
2021/08/12 04:34:27;;;;;;;29.53;27.93;;;;;;;;;;4994234;28;20807;-63
2021/08/12 04:36:54;;;;;;;29.57;27.87;;;;;;;;;;4994475;28;20454;-63
2021/08/12 04:39:22;;;;;;;29.97;27.60;;;;;;;;;;4993916;28;20823;-63
2021/08/12 04:41:49;;;;;;;28.40;26.90;;;;;;;;;;5002816;28;20487;-64
2021/08/12 04:44:16;;;;;;;30.57;28.60;;;;;;;;;;4994283;28;20466;-63
2021/08/12 04:46:44;;;;;;;28.57;26.77;;;;;;;;;;4997362;28;20454;-64
2021/08/12 04:49:12;;;;;;;27.83;26.33;;;;;;;;;;5011872;28;20449;-64
2021/08/12 04:51:39;;;;;;;28.60;27.00;;;;;;;;;;5012208;28;21008;-64
2021/08/12 04:54:06;;;;;;;29.33;27.53;;;;;;;;;;5008865;28;20452;-64
2021/08/12 04:56:34;;;;;;;29.50;27.80;;;;;;;;;;5012068;28;20819;-64
2021/08/12 04:59:01;;;;;;;32.27;30.30;;;;;;;;;;5012722;28;20450;-66
2021/08/12 05:01:28;;;;;;;35.23;33.10;;;;;;;;;;5009609;28;21001;-66
2021/08/12 05:03:56;;;;;;;33.17;30.87;;;;;;;;;;5007328;28;20460;-66
2021/08/12 05:06:23;;;;;;;30.87;28.67;;;;;;;;;;4998417;28;20473;-64
2021/08/12 05:08:50;;;;;;;31.30;29.40;;;;;;;;;;5000518;28;20554;-65
2021/08/12 05:11:18;;;;;;;29.57;27.87;;;;;;;;;;4996196;28;20475;-65
2021/08/12 05:13:46;;;;;;;29.83;28.03;;;;;;;;;;4995472;28;20478;-65
2021/08/12 05:16:13;;;;;;;29.10;27.33;;;;;;;;;;5011195;28;20465;-64
2021/08/12 05:18:41;;;;;;;29.30;27.50;;;;;;;;;;4995801;28;20805;-64
2021/08/12 05:21:09;;;;;;;42.20;39.80;;;;;;;;;;5012824;28;20869;-65
2021/08/12 05:23:36;;;;;;;28.87;27.17;;;;;;;;;;4997286;28;20473;-65
2021/08/12 05:26:04;;;;;;;28.60;26.90;;;;;;;;;;5012600;28;20477;-65
2021/08/12 05:28:31;;;;;;;28.60;26.70;;;;;;;;;;4996129;28;20853;-64
2021/08/12 05:30:58;;;;;;;26.93;25.43;;;;;;;;;;5009472;28;20461;-64
2021/08/12 05:33:25;;;;;;;28.57;26.97;;;;;;;;;;5004532;28;20945;-64
2021/08/12 05:35:52;;;;;;;27.53;25.83;;;;;;;;;;5013153;28;20451;-66
2021/08/12 05:38:20;;;;;;;27.50;25.90;;;;;;;;;;5000900;28;20890;-66
2021/08/12 05:40:48;;;;;;;27.03;25.40;;;;;;;;;;5009983;28;20561;-65
2021/08/12 05:43:15;;;;;;;26.90;25.20;;;;;;;;;;5010691;28;21008;-66
2021/08/12 05:45:42;;;;;;;27.50;25.80;;;;;;;;;;5009075;28;20466;-65
2021/08/12 05:48:09;;;;;;;28.37;26.47;;;;;;;;;;5008878;28;20488;-66
2021/08/12 05:50:36;;;;;;;27.40;25.60;;;;;;;;;;5003510;28;20465;-66
2021/08/12 05:53:03;;;;;;;28.00;26.30;;;;;;;;;;5004598;28;20488;-64
2021/08/12 05:55:32;;;;;;;28.10;26.37;;;;;;;;;;5007769;28;20466;-66
2021/08/12 05:57:59;;;;;;;28.03;26.43;;;;;;;;;;5012451;28;20449;-65
2021/08/12 06:00:26;;;;;;;29.00;27.23;;;;;;;;;;4999261;28;20477;-66
2021/08/12 06:02:56;;;;;;;26.97;25.47;;;;;;;;;;4996675;28;20498;-63
2021/08/12 06:05:23;;;;;;;27.60;25.90;;;;;;;;;;4992797;28;20986;-65
2021/08/12 06:07:50;;;;;;;27.77;26.00;;;;;;;;;;4999775;28;20556;-65
2021/08/12 06:10:19;;;;;;;37.90;35.00;;;;;;;;;;5011541;28;20536;-63
2021/08/12 06:12:48;;;;;;;37.77;35.37;;;;;;;;;;5001047;28;20552;-70
2021/08/12 06:15:15;;;;;;;34.87;32.90;;;;;;;;;;5009661;28;20495;-70
2021/08/12 06:17:42;;;;;;;37.00;34.90;;;;;;;;;;5011952;28;20453;-66
2021/08/12 06:20:10;;;;;;;38.47;36.20;;;;;;;;;;5005889;28;20959;-62
2021/08/12 06:22:37;;;;;;;38.77;36.47;;;;;;;;;;5010991;28;20503;-66
2021/08/12 06:25:04;;;;;;;41.00;38.70;;;;;;;;;;5005130;28;20837;-67
2021/08/12 06:27:31;;;;;;;43.70;41.20;;;;;;;;;;4992662;28;20454;-67
2021/08/12 06:30:00;;;;;;;40.30;38.00;;;;;;;;;;5003177;28;20832;-67
2021/08/12 06:32:28;;;;;;;40.30;38.10;;;;;;;;;;5011380;28;20490;-66
2021/08/12 06:34:55;;;;;;;35.47;33.37;;;;;;;;;;5010393;28;20471;-66
2021/08/12 06:37:24;;;;;;;37.77;35.57;;;;;;;;;;5011587;28;20474;-66
2021/08/12 06:39:51;;;;;;;34.57;32.37;;;;;;;;;;5011200;28;20466;-67
2021/08/12 06:42:18;;;;;;;37.03;34.93;;;;;;;;;;5012569;28;20491;-66
2021/08/12 06:44:45;;;;;;;36.00;33.90;;;;;;;;;;5015019;28;20473;-66
2021/08/12 06:47:14;;;;;;;34.70;32.70;;;;;;;;;;4998614;28;20846;-66
2021/08/12 06:49:41;;;;;;;34.07;31.97;;;;;;;;;;5008755;28;20502;-66
2021/08/12 06:52:08;;;;;;;42.43;39.90;;;;;;;;;;5017171;28;21007;-66
2021/08/12 06:54:35;;;;;;;42.90;40.40;;;;;;;;;;5017646;28;20445;-65
2021/08/12 06:57:02;;;;;;;34.13;32.13;;;;;;;;;;5017524;28;20465;-64
2021/08/12 06:59:29;;;;;;;31.30;29.47;;;;;;;;;;5008160;28;20827;-66
2021/08/12 07:01:57;;;;;;;28.83;27.03;;;;;;;;;;5006094;28;20495;-65
2021/08/12 07:04:25;;;;;;;28.60;26.80;;;;;;;;;;5008136;28;20527;-67
2021/08/12 07:06:53;;;;;;;28.17;26.50;;;;;;;;;;5004235;28;20996;-66
2021/08/12 07:09:20;;;;;;;29.20;27.40;;;;;;;;;;4992436;28;20445;-66
2021/08/12 07:11:50;;;;;;;30.00;28.20;;;;;;;;;;4998882;28;21023;-66
2021/08/12 07:14:17;;;;;;;29.37;27.70;;;;;;;;;;5012536;28;20819;-66
2021/08/12 07:16:44;;;;;;;29.90;28.07;;;;;;;;;;5010581;28;20469;-66
2021/08/12 07:19:11;;;;;;;29.93;27.90;;;;;;;;;;5010583;28;20472;-66
2021/08/12 07:21:41;;;;;;;28.70;26.83;;;;;;;;;;5013229;28;20489;-66
2021/08/12 07:24:08;;;;;;;26.40;24.80;;;;;;;;;;5015502;28;20485;-66
2021/08/12 07:26:35;;;;;;;25.60;24.00;;;;;;;;;;5013829;28;20469;-65
2021/08/12 07:29:02;;;;;;;24.93;23.53;;;;;;;;;;5014217;28;20553;-65
2021/08/12 07:31:29;;;;;;;25.50;24.00;;;;;;;;;;5007747;28;20486;-66
2021/08/12 07:33:57;;;;;;;27.87;26.27;;;;;;;;;;5007822;28;20468;-67
2021/08/12 07:36:24;;;;;;;29.37;27.47;;;;;;;;;;5014544;28;20454;-66
2021/08/12 07:38:52;;;;;;;26.43;24.93;;;;;;;;;;5014167;28;20476;-66
2021/08/12 07:41:20;;;;;;;28.17;26.47;;;;;;;;;;5014628;28;20475;-66
2021/08/12 07:43:47;;;;;;;29.10;27.40;;;;;;;;;;5014138;28;20857;-66
2021/08/12 07:46:14;;;;;;;28.17;26.47;;;;;;;;;;5014351;28;20459;-66
2021/08/12 07:48:41;;;;;;;27.70;26.10;;;;;;;;;;4996823;28;20472;-66
2021/08/12 07:51:08;;;;;;;28.83;27.13;;;;;;;;;;4995190;28;20470;-66
2021/08/12 07:53:36;;;;;;;30.60;28.77;;;;;;;;;;5013678;28;20565;-65
2021/08/12 07:56:04;;;;;;;27.97;26.37;;;;;;;;;;5015736;28;20446;-66
2021/08/12 07:58:31;;;;;;;28.87;27.17;;;;;;;;;;5013464;28;20469;-67
2021/08/12 08:01:00;;;;;;;28.77;26.77;;;;;;;;;;5009089;28;20473;-66
2021/08/12 08:03:27;;;;;;;27.97;26.17;;;;;;;;;;5009663;28;20569;-66
2021/08/12 08:05:54;;;;;;;29.40;27.60;;;;;;;;;;5017141;28;20471;-66
2021/08/12 08:08:21;;;;;;;30.20;28.30;;;;;;;;;;5019055;28;20460;-66
2021/08/12 08:10:48;;;;;;;29.73;27.90;;;;;;;;;;5019555;28;20483;-66
2021/08/12 08:13:17;;;;;;;33.20;31.30;;;;;;;;;;5013535;28;20451;-66
2021/08/12 08:15:44;;;;;;;32.90;30.93;;;;;;;;;;5017782;28;20477;-66
2021/08/12 08:18:11;;;;;;;33.90;31.60;;;;;;;;;;5015750;28;20498;-67
2021/08/12 08:20:38;;;;;;;32.27;30.47;;;;;;;;;;5001020;28;20447;-65
2021/08/12 08:23:06;;;;;;;32.13;30.20;;;;;;;;;;5031658;22;21002;-68
2021/08/12 08:25:33;;;;;;;29.23;27.43;;;;;;;;;;5037296;28;20463;-68
2021/08/12 08:28:00;;;;;;;26.43;24.93;;;;;;;;;;5043483;28;20458;-68
2021/08/12 08:30:30;;;;;;;30.97;29.17;;;;;;;;;;5045447;28;20567;-68
2021/08/12 08:32:57;;;;;;;28.43;26.70;;;;;;;;;;5032162;28;20488;-68
2021/08/12 08:35:25;;;;;;;28.83;27.23;;;;;;;;;;5035282;28;20453;-68
2021/08/12 08:37:52;;;;;;;28.80;27.20;;;;;;;;;;5034035;28;20469;-69
2021/08/12 08:40:20;;;;;;;28.93;27.23;;;;;;;;;;5035201;28;20456;-68
2021/08/12 08:42:47;;;;;;;29.27;27.00;;;;;;;;;;5036277;28;20494;-68
2021/08/12 08:45:15;;;;;;;28.40;26.90;;;;;;;;;;5037120;28;20472;-68
2021/08/12 08:47:45;;;;;;;27.60;25.80;;;;;;;;;;5033718;28;20471;-68
2021/08/12 08:50:13;;;;;;;27.13;25.53;;;;;;;;;;5027333;28;20469;-69
2021/08/12 08:52:40;;;;;;;27.03;25.43;;;;;;;;;;5013449;28;20972;-69
2021/08/12 08:55:08;;;;;;;28.90;27.10;;;;;;;;;;5026723;28;20468;-68
2021/08/12 08:57:36;;;;;;;26.73;25.03;;;;;;;;;;5033900;28;20455;-68
2021/08/12 09:00:04;;;;;;;27.83;26.13;;;;;;;;;;5032538;28;20471;-68
2021/08/12 09:02:31;;;;;;;27.03;25.43;;;;;;;;;;5031829;28;20449;-69
2021/08/12 09:04:59;;;;;;;26.20;24.70;;;;;;;;;;5030967;28;20494;-69
2021/08/12 09:07:26;;;;;;;25.77;24.27;;;;;;;;;;5028815;28;20469;-69
2021/08/12 09:09:54;;;;;;;25.77;24.27;;;;;;;;;;5031947;28;20822;-68
2021/08/12 09:12:23;;;;;;;26.40;24.40;;;;;;;;;;5028718;28;20468;-69
2021/08/12 09:14:51;;;;;;;27.30;25.50;;;;;;;;;;5032563;28;20479;-69
2021/08/12 09:17:25;;;;;;;24.07;22.67;;;;;;;;;;5030035;28;20460;-69
2021/08/12 09:20:01;;;;;;;26.70;25.13;;;;;;;;;;5032231;28;20448;-68
2021/08/12 09:22:29;;;;;;;25.37;23.80;;;;;;;;;;5034238;28;20955;-68
2021/08/12 09:24:56;;;;;;;25.60;24.13;;;;;;;;;;5012838;28;20972;-69
2021/08/12 09:27:23;;;;;;;24.23;22.83;;;;;;;;;;5024632;28;21718;-69
2021/08/12 09:29:50;;;;;;;23.10;21.80;;;;;;;;;;5030155;28;20979;-69
2021/08/12 09:32:19;;;;;;;25.40;23.80;;;;;;;;;;5029965;28;20468;-68
2021/08/12 09:34:47;;;;;;;24.47;23.17;;;;;;;;;;5028632;28;20462;-68
2021/08/12 09:37:16;;;;;;;25.77;23.87;;;;;;;;;;5029965;28;20460;-69
2021/08/12 09:39:46;;;;;;;25.00;23.60;;;;;;;;;;5030970;28;20567;-69
2021/08/12 09:42:14;;;;;;;24.50;23.10;;;;;;;;;;5030512;28;20464;-69
2021/08/12 09:44:42;;;;;;;24.70;23.20;;;;;;;;;;5029318;28;20495;-69
2021/08/12 09:47:11;;;;;;;24.20;22.90;;;;;;;;;;5028535;28;20621;-69
2021/08/12 09:49:39;;;;;;;24.33;22.93;;;;;;;;;;5031378;28;20466;-69
2021/08/12 09:52:20;;;;;;;24.50;23.10;;;;;;;;;;5026585;28;20467;-69
2021/08/12 09:54:48;;;;;;;24.83;23.53;;;;;;;;;;5031092;28;20440;-67
2021/08/12 09:57:16;;;;;;;24.70;23.37;;;;;;;;;;5029492;28;20468;-68
2021/08/12 09:59:49;;;;;;;24.63;23.23;;;;;;;;;;5029609;28;20838;-67
2021/08/12 10:02:17;;;;;;;21.83;20.73;;;;;;;;;;5024163;28;20519;-69
2021/08/12 10:04:44;;;;;;;23.07;21.87;;;;;;;;;;5025150;28;21036;-69
2021/08/12 10:07:33;;;;;;;23.60;22.30;;;;;;;;;;5024994;28;20480;-69
2021/08/12 10:10:09;;;;;;;23.30;22.10;;;;;;;;;;5028167;28;20461;-69
2021/08/12 10:12:36;;;;;;;23.50;22.20;;;;;;;;;;5030698;28;20466;-69
2021/08/12 10:15:03;;;;;;;22.33;20.87;;;;;;;;;;5029658;28;20482;-66
2021/08/12 10:17:30;;;;;;;23.60;22.13;;;;;;;;;;5030454;28;20448;-69
2021/08/12 10:19:57;;;;;;;22.60;21.40;;;;;;;;;;5025106;28;20460;-69
2021/08/12 10:22:24;;;;;;;21.83;20.73;;;;;;;;;;5031447;28;20452;-67
2021/08/12 10:24:51;;;;;;;21.87;20.67;;;;;;;;;;5028405;28;20487;-67
2021/08/12 10:27:20;;;;;;;24.17;22.97;;;;;;;;;;5029905;28;20476;-69
2021/08/12 10:29:49;;;;;;;24.47;23.07;;;;;;;;;;5032250;28;20819;-69
2021/08/12 10:32:16;;;;;;;22.13;20.80;;;;;;;;;;5027965;28;20468;-69
2021/08/12 10:34:43;;;;;;;21.50;20.40;;;;;;;;;;5030384;28;20989;-68
2021/08/12 10:37:11;;;;;;;20.93;19.83;;;;;;;;;;5026594;28;20465;-68
2021/08/12 10:39:39;;;;;;;22.07;20.87;;;;;;;;;;5031179;28;20503;-68
2021/08/12 10:42:06;;;;;;;22.00;20.70;;;;;;;;;;5026573;28;20465;-69
2021/08/12 10:44:35;;;;;;;22.60;21.43;;;;;;;;;;5023846;28;20484;-68
2021/08/12 10:47:03;;;;;;;22.77;21.57;;;;;;;;;;5030195;28;20467;-68
2021/08/12 10:49:31;;;;;;;22.13;20.97;;;;;;;;;;5030754;28;20943;-69
2021/08/12 10:52:02;;;;;;;21.47;20.17;;;;;;;;;;5026479;28;20835;-68
2021/08/12 10:54:29;;;;;;;20.97;19.97;;;;;;;;;;5027827;28;20487;-69
2021/08/12 10:57:16;;;;;;;22.50;21.30;;;;;;;;;;5019094;28;20817;-68
2021/08/12 10:59:45;;;;;;;21.33;20.13;;;;;;;;;;5030053;28;20993;-68
2021/08/12 11:02:39;;;;;;;22.43;21.33;;;;;;;;;;5029585;28;20464;-69
2021/08/12 11:05:06;;;;;;;22.13;21.03;;;;;;;;;;4979828;28;20488;-68
2021/08/12 11:07:48;;;;;;;21.80;20.60;;;;;;;;;;5025470;28;20877;-68
2021/08/12 11:10:16;;;;;;;21.43;20.23;;;;;;;;;;5036093;28;20449;-68
2021/08/12 11:13:02;;;;;;;21.70;20.60;;;;;;;;;;5030566;28;20483;-66
2021/08/12 11:15:48;;;;;;;22.70;21.47;;;;;;;;;;5036170;28;20448;-66
2021/08/12 11:18:18;;;;;;;22.47;21.30;;;;;;;;;;5030400;28;20468;-66
2021/08/12 11:20:46;;;;;;;22.37;21.17;;;;;;;;;;5034573;28;20442;-66
2021/08/12 11:23:32;;;;;;;22.97;21.70;;;;;;;;;;5030639;28;20495;-68
2021/08/12 11:25:59;;;;;;;22.00;20.70;;;;;;;;;;5034918;28;20459;-68
2021/08/12 11:28:41;;;;;;;22.47;21.17;;;;;;;;;;5030935;28;20475;-69
2021/08/12 11:31:09;;;;;;;22.20;21.00;;;;;;;;;;5011619;28;21207;-68
2021/08/12 11:33:48;;;;;;;23.10;21.90;;;;;;;;;;5033976;28;21010;-68
2021/08/12 11:36:19;;;;;;;24.10;22.50;;;;;;;;;;5031038;28;20532;-66
2021/08/12 11:38:52;;;;;;;23.20;21.80;;;;;;;;;;5034813;28;20441;-66
2021/08/12 11:41:19;;;;;;;22.70;21.40;;;;;;;;;;5031339;28;20832;-66
2021/08/12 11:43:47;;;;;;;22.20;21.00;;;;;;;;;;5035079;28;20496;-66
2021/08/12 11:46:15;;;;;;;23.83;22.53;;;;;;;;;;5033706;28;20822;-66
2021/08/12 11:48:43;;;;;;;23.17;21.97;;;;;;;;;;5034140;28;20872;-66
2021/08/12 11:51:11;;;;;;;23.60;22.30;;;;;;;;;;5040882;28;20942;-65
2021/08/12 11:53:42;;;;;;;23.30;22.00;;;;;;;;;;5045916;28;20490;-66
2021/08/12 11:56:10;;;;;;;22.77;21.57;;;;;;;;;;5035332;28;20463;-66
2021/08/12 11:58:38;;;;;;;23.20;21.97;;;;;;;;;;5039882;28;20469;-66
2021/08/12 12:01:11;;;;;;;23.07;21.87;;;;;;;;;;5027671;28;20468;-66
2021/08/12 12:03:38;;;;;;;24.20;22.90;;;;;;;;;;5030609;28;20495;-66
2021/08/12 12:06:06;;;;;;;23.10;21.80;;;;;;;;;;5033529;28;20453;-66
2021/08/12 12:08:34;;;;;;;23.20;21.90;;;;;;;;;;5030745;28;20461;-66
2021/08/12 12:11:08;;;;;;;22.40;21.20;;;;;;;;;;5015331;28;20449;-66
2021/08/12 12:13:35;;;;;;;23.87;22.57;;;;;;;;;;5030047;28;20481;-66
2021/08/12 12:16:02;;;;;;;23.17;21.90;;;;;;;;;;5032315;28;20556;-66
2021/08/12 12:18:34;;;;;;;22.73;21.53;;;;;;;;;;5030268;28;20965;-66
2021/08/12 12:21:02;;;;;;;22.73;21.43;;;;;;;;;;5033265;28;20492;-66
2021/08/12 12:23:30;;;;;;;23.47;22.17;;;;;;;;;;5027700;28;20929;-66
2021/08/12 12:25:58;;;;;;;24.70;23.40;;;;;;;;;;5033445;28;20480;-66
2021/08/12 12:28:26;;;;;;;23.37;22.17;;;;;;;;;;5032228;28;20468;-66
2021/08/12 12:30:53;;;;;;;22.60;21.40;;;;;;;;;;5033469;28;21006;-66
2021/08/12 12:33:22;;;;;;;22.63;21.43;;;;;;;;;;5033490;28;20468;-66
2021/08/12 12:35:51;;;;;;;23.10;21.73;;;;;;;;;;5032733;28;20467;-66
2021/08/12 12:38:21;;;;;;;23.03;21.73;;;;;;;;;;5032736;28;20460;-66
2021/08/12 12:40:48;;;;;;;22.97;21.57;;;;;;;;;;5033145;28;20455;-66
2021/08/12 12:43:17;;;;;;;23.03;21.73;;;;;;;;;;5035235;28;20481;-66
2021/08/12 12:45:48;;;;;;;22.33;21.13;;;;;;;;;;5052267;28;20485;-66
2021/08/12 12:48:16;;;;;;;22.43;21.30;;;;;;;;;;5033413;28;20464;-66
2021/08/12 12:50:44;;;;;;;21.90;20.80;;;;;;;;;;5033148;28;20448;-69
2021/08/12 12:53:11;;;;;;;22.67;21.23;;;;;;;;;;5018111;28;20464;-66
2021/08/12 12:55:40;;;;;;;23.83;22.03;;;;;;;;;;5045942;28;20458;-67
2021/08/12 12:58:21;;;;;;;23.13;21.87;;;;;;;;;;5034201;28;20453;-67
2021/08/12 13:01:02;;;;;;;23.03;21.63;;;;;;;;;;5050124;28;20989;-67
2021/08/12 13:03:30;;;;;;;23.47;22.00;;;;;;;;;;5043476;28;20467;-66
2021/08/12 13:05:59;;;;;;;23.60;22.30;;;;;;;;;;5052991;28;20847;-69
2021/08/12 13:08:26;;;;;;;23.20;21.90;;;;;;;;;;5044245;28;20508;-70
2021/08/12 13:11:06;;;;;;;22.10;20.70;;;;;;;;;;5032790;28;20452;-67
2021/08/12 13:13:36;;;;;;;21.50;20.27;;;;;;;;;;5043268;28;20576;-65
2021/08/12 13:16:03;;;;;;;23.20;21.60;;;;;;;;;;5053257;28;20440;-65
2021/08/12 13:19:03;;;;;;;24.17;22.50;;;;;;;;;;5052630;28;20452;-67
2021/08/12 13:21:39;;;;;;;21.87;20.73;;;;;;;;;;4952139;29;20432;-68
2021/08/12 13:24:07;;;;;;;22.47;21.17;;;;;;;;;;4937821;29;20867;-68
2021/08/12 13:26:37;;;;;;;22.40;21.00;;;;;;;;;;4984822;28;20556;-68
2021/08/12 13:29:07;;;;;;;22.53;21.33;;;;;;;;;;5032397;28;20459;-68
2021/08/12 13:31:37;;;;;;;22.20;21.00;;;;;;;;;;5032410;28;20456;-67
2021/08/12 13:34:04;;;;;;;25.20;23.70;;;;;;;;;;5033740;28;20511;-67
2021/08/12 13:36:31;;;;;;;24.40;23.00;;;;;;;;;;5032492;28;20459;-67
2021/08/12 13:38:59;;;;;;;24.93;23.60;;;;;;;;;;5017057;28;20957;-67
2021/08/12 13:41:26;;;;;;;25.40;24.00;;;;;;;;;;5022761;28;20449;-67
2021/08/12 13:43:53;;;;;;;23.97;22.57;;;;;;;;;;5032133;28;20476;-67
2021/08/12 13:46:21;;;;;;;24.60;23.20;;;;;;;;;;5032000;28;20481;-67
2021/08/12 13:48:48;;;;;;;24.73;23.40;;;;;;;;;;5048023;28;20467;-68
2021/08/12 13:51:15;;;;;;;25.40;24.00;;;;;;;;;;5051780;28;20968;-68
2021/08/12 13:53:43;;;;;;;24.10;22.77;;;;;;;;;;5037939;28;20477;-68
2021/08/12 13:56:10;;;;;;;24.30;22.80;;;;;;;;;;5031979;28;20808;-68
2021/08/12 13:58:37;;;;;;;25.50;24.10;;;;;;;;;;5042765;28;20444;-68
2021/08/12 14:01:04;;;;;;;25.50;23.90;;;;;;;;;;5040579;28;20456;-68
2021/08/12 14:03:32;;;;;;;26.40;24.80;;;;;;;;;;5031735;28;20496;-68
2021/08/12 14:06:00;;;;;;;25.60;24.10;;;;;;;;;;5032170;28;20488;-68
2021/08/12 14:08:27;;;;;;;24.63;23.33;;;;;;;;;;5031897;28;20455;-68
2021/08/12 14:10:54;;;;;;;24.90;23.50;;;;;;;;;;5031836;28;20445;-68
2021/08/12 14:13:21;;;;;;;24.40;23.10;;;;;;;;;;5031171;28;20481;-68
2021/08/12 14:15:48;;;;;;;24.60;23.30;;;;;;;;;;5031593;28;20855;-68
2021/08/12 14:18:15;;;;;;;25.33;24.03;;;;;;;;;;5032074;28;20447;-68
2021/08/12 14:20:44;;;;;;;27.50;25.80;;;;;;;;;;5031412;28;20474;-68
2021/08/12 14:23:11;;;;;;;24.57;23.27;;;;;;;;;;5031700;28;20862;-69